Time;durP1;ratioP1;P1;durP2;ratioP2;P2;SDS_P1;SDS_P2;PMS_P1;PMS_P2;Temp;Humidity;BMP_temperature;BMP_pressure;BME280_temperature;BME280_humidity;BME280_pressure;Samples;Min_cycle;Max_cycle;Signal;HPM_P1;HPM_P2
2022/04/16 00:01:28;;;;;;;1.07;1.07;;;10.10;75.90;;;;;;5130465;27;20658;-87
2022/04/16 00:03:56;;;;;;;0.30;0.20;;;10.10;76.40;;;;;;5132123;27;20613;-86
2022/04/16 00:06:26;;;;;;;0.30;0.22;;;10.00;75.60;;;;;;5129972;27;20659;-86
2022/04/16 00:08:54;;;;;;;0.30;0.17;;;9.80;78.60;;;;;;5120259;27;20190;-86
2022/04/16 00:11:22;;;;;;;0.30;0.17;;;9.60;78.90;;;;;;5130088;27;20623;-86
2022/04/16 00:13:50;;;;;;;0.40;0.20;;;9.10;79.60;;;;;;5121247;27;20624;-86
2022/04/16 00:16:18;;;;;;;0.47;0.47;;;9.40;80.70;;;;;;5108195;27;20229;-87
2022/04/16 00:18:46;;;;;;;0.50;0.50;;;9.60;79.60;;;;;;5105011;28;20620;-87
2022/04/16 00:21:13;;;;;;;0.40;0.30;;;9.60;79.10;;;;;;5124627;27;20635;-87
2022/04/16 00:23:43;;;;;;;0.30;0.10;;;9.60;79.10;;;;;;5132220;27;20623;-86
2022/04/16 00:26:12;;;;;;;0.35;0.20;;;9.50;78.80;;;;;;5112969;27;20626;-87
2022/04/16 00:28:40;;;;;;;0.47;0.45;;;9.60;85.70;;;;;;5124630;27;20197;-86
2022/04/16 00:31:08;;;;;;;0.40;0.30;;;9.80;79.10;;;;;;5132266;27;20203;-86
2022/04/16 00:33:37;;;;;;;0.30;0.10;;;9.40;78.60;;;;;;5112822;27;20627;-87
2022/04/16 00:36:05;;;;;;;0.40;0.30;;;9.50;77.70;;;;;;5111665;27;20198;-87
2022/04/16 00:38:33;;;;;;;0.30;0.30;;;9.60;76.90;;;;;;5100269;27;20206;-87
2022/04/16 00:41:02;;;;;;;0.30;0.10;;;9.70;82.50;;;;;;5125567;27;20190;-88
2022/04/16 00:43:30;;;;;;;0.30;0.20;;;9.70;75.50;;;;;;5117206;27;20197;-86
2022/04/16 00:45:59;;;;;;;0.30;0.20;;;9.80;75.50;;;;;;5111526;27;20222;-87
2022/04/16 00:48:26;;;;;;;0.40;0.30;;;9.50;74.50;;;;;;5114496;27;20208;-86
2022/04/16 00:50:55;;;;;;;0.30;0.10;;;9.70;75.10;;;;;;5128654;27;20185;-86
2022/04/16 00:53:25;;;;;;;0.30;0.10;;;9.80;81.10;;;;;;5119795;27;20282;-86
2022/04/16 00:55:52;;;;;;;0.30;0.30;;;9.70;74.50;;;;;;5111853;27;20194;-86
2022/04/16 00:58:20;;;;;;;0.40;0.30;;;9.70;74.50;;;;;;5112396;27;20225;-86
2022/04/16 01:00:47;;;;;;;0.30;0.10;;;9.70;80.70;;;;;;5126609;27;20597;-86
2022/04/16 01:03:15;;;;;;;0.40;0.40;;;9.60;74.90;;;;;;5119561;27;20190;-86
2022/04/16 01:05:42;;;;;;;0.40;0.17;;;9.60;74.70;;;;;;5126300;27;20228;-86
2022/04/16 01:08:09;;;;;;;0.30;0.20;;;9.60;74.50;;;;;;5122281;27;20798;-86
2022/04/16 01:10:37;;;;;;;0.30;0.20;;;9.60;74.30;;;;;;5111041;27;20196;-86
2022/04/16 01:13:07;;;;;;;0.30;0.20;;;9.40;74.90;;;;;;5114226;27;20193;-87
2022/04/16 01:15:39;;;;;;;0.57;0.57;;;9.50;75.20;;;;;;5120706;27;20226;-86
2022/04/16 01:18:07;;;;;;;0.30;0.10;;;9.50;75.20;;;;;;5121456;27;20190;-85
2022/04/16 01:20:37;;;;;;;0.30;0.20;;;9.40;80.90;;;;;;5119724;27;20542;-87
2022/04/16 01:23:06;;;;;;;0.88;0.35;;;9.40;75.60;;;;;;5111108;28;20891;-86
2022/04/16 01:25:35;;;;;;;0.55;0.30;;;9.30;75.90;;;;;;5111931;27;20555;-86
2022/04/16 01:28:02;;;;;;;0.88;0.75;;;9.10;81.90;;;;;;5112798;27;20217;-85
2022/04/16 01:30:30;;;;;;;0.30;0.17;;;9.30;76.20;;;;;;5131194;27;20185;-86
2022/04/16 01:32:58;;;;;;;0.40;0.30;;;9.20;76.20;;;;;;5125550;27;20191;-87
2022/04/16 01:35:25;;;;;;;0.30;0.20;;;9.30;76.40;;;;;;5110404;28;20207;-87
2022/04/16 01:37:52;;;;;;;1.13;0.95;;;9.10;76.20;;;;;;5123506;27;20194;-86
2022/04/16 01:40:25;;;;;;;0.30;0.20;;;9.30;83.40;;;;;;5121626;27;20236;-86
2022/04/16 01:42:56;;;;;;;0.50;0.50;;;9.20;76.50;;;;;;5110450;27;20676;-87
2022/04/16 01:45:24;;;;;;;0.30;0.10;;;9.10;76.70;;;;;;5128718;27;20866;-87
2022/04/16 01:47:52;;;;;;;0.50;0.38;;;9.10;77.30;;;;;;5123190;27;20205;-86
2022/04/16 01:50:19;;;;;;;0.30;0.30;;;9.10;77.20;;;;;;5110695;27;20202;-86
2022/04/16 01:52:47;;;;;;;0.30;0.20;;;9.10;77.10;;;;;;5123140;27;21004;-86
2022/04/16 01:55:14;;;;;;;0.30;0.20;;;9.10;77.30;;;;;;5127922;27;20188;-86
2022/04/16 01:57:43;;;;;;;0.30;0.20;;;9.00;77.70;;;;;;5125373;27;20280;-86
2022/04/16 02:00:13;;;;;;;0.50;0.38;;;8.80;84.10;;;;;;5118029;27;20197;-86
2022/04/16 02:02:40;;;;;;;0.30;0.10;;;8.90;78.10;;;;;;5118721;27;20230;-86
2022/04/16 02:05:08;;;;;;;0.55;0.45;;;8.80;78.60;;;;;;5118179;27;20236;-86
2022/04/16 02:07:35;;;;;;;0.30;0.10;;;9.10;79.00;;;;;;5124228;27;20283;-86
2022/04/16 02:10:02;;;;;;;0.30;0.10;;;8.70;78.80;;;;;;5110208;27;20202;-86
2022/04/16 02:12:29;;;;;;;0.30;0.20;;;8.70;79.50;;;;;;5113235;27;20669;-85
2022/04/16 02:14:57;;;;;;;1.05;0.68;;;8.60;80.50;;;;;;5121807;27;20190;-86
2022/04/16 02:17:24;;;;;;;0.30;0.20;;;8.60;88.00;;;;;;5124383;27;20618;-87
2022/04/16 02:19:51;;;;;;;0.30;0.20;;;8.40;81.30;;;;;;5115246;27;20327;-87
2022/04/16 02:22:19;;;;;;;0.35;0.35;;;8.30;81.80;;;;;;5130515;27;20254;-87
2022/04/16 02:24:46;;;;;;;0.70;0.68;;;8.30;80.70;;;;;;5116784;27;20236;-86
2022/04/16 02:27:14;;;;;;;0.95;0.30;;;8.30;80.30;;;;;;5111980;27;20217;-87
2022/04/16 02:29:41;;;;;;;0.30;0.17;;;8.30;80.70;;;;;;5124595;27;20189;-86
2022/04/16 02:32:11;;;;;;;0.40;0.25;;;8.10;81.80;;;;;;5110201;27;20202;-88
2022/04/16 02:34:38;;;;;;;0.30;0.20;;;8.00;82.80;;;;;;5129652;27;20200;-87
2022/04/16 02:37:05;;;;;;;0.55;0.30;;;7.90;83.00;;;;;;5129216;27;20737;-88
2022/04/16 02:39:32;;;;;;;0.80;0.50;;;8.00;83.50;;;;;;5129206;27;20292;-86
2022/04/16 02:41:59;;;;;;;0.30;0.20;;;7.90;83.90;;;;;;5121653;27;20269;-87
2022/04/16 02:47:13;;;;;;;0.30;0.20;;;7.70;84.40;;;;;;5129137;27;20710;-87
2022/04/16 02:49:40;;;;;;;0.30;0.20;;;7.70;84.60;;;;;;5127721;27;20185;-87
2022/04/16 02:52:08;;;;;;;0.63;0.63;;;7.50;84.80;;;;;;5129548;27;20243;-86
2022/04/16 02:54:36;;;;;;;0.30;0.20;;;7.60;85.50;;;;;;5111281;27;20200;-87
2022/04/16 02:57:04;;;;;;;1.23;0.75;;;7.60;85.70;;;;;;5109509;27;20251;-87
2022/04/16 02:59:35;;;;;;;0.30;0.10;;;7.50;86.40;;;;;;5116243;27;20209;-86
2022/04/16 03:02:02;;;;;;;0.30;0.20;;;7.50;86.60;;;;;;5118052;27;20662;-87
2022/04/16 03:04:30;;;;;;;0.30;0.20;;;7.40;86.90;;;;;;5109477;27;20189;-87
2022/04/16 03:06:57;;;;;;;0.88;0.88;;;7.30;87.40;;;;;;5108071;28;20430;-87
2022/04/16 03:09:24;;;;;;;0.30;0.20;;;7.30;86.80;;;;;;5127426;27;20209;-87
2022/04/16 03:11:51;;;;;;;0.40;0.38;;;7.40;86.10;;;;;;5123302;27;20257;-88
2022/04/16 03:19:50;;;;;;;0.68;0.68;;;7.20;87.40;;;;;;5127293;27;20258;-87
2022/04/16 03:22:17;;;;;;;0.30;0.20;;;7.10;86.70;;;;;;5109538;27;20205;-86
2022/04/16 03:24:44;;;;;;;0.30;0.10;;;7.20;87.60;;;;;;5113937;28;20252;-86
2022/04/16 03:27:11;;;;;;;0.30;0.20;;;7.20;86.90;;;;;;5127277;27;20632;-87
2022/04/16 03:29:38;;;;;;;0.30;0.20;;;7.20;86.80;;;;;;5127442;27;20233;-87
2022/04/16 03:32:06;;;;;;;0.30;0.20;;;7.20;86.30;;;;;;5108920;28;20526;-86
2022/04/16 03:34:33;;;;;;;0.30;0.20;;;7.20;87.10;;;;;;5127778;27;20199;-87
2022/04/16 03:37:02;;;;;;;0.45;0.25;;;7.30;87.40;;;;;;5128744;27;20230;-86
2022/04/16 03:39:29;;;;;;;0.30;0.20;;;7.20;88.10;;;;;;5109517;28;20920;-86
2022/04/16 03:41:55;;;;;;;0.30;0.20;;;7.30;88.30;;;;;;5113205;28;20193;-86
2022/04/16 03:44:22;;;;;;;0.30;0.20;;;7.30;89.50;;;;;;5120994;28;20245;-87
2022/04/16 03:46:49;;;;;;;0.30;0.20;;;7.30;89.60;;;;;;5108672;28;20436;-88
2022/04/16 03:49:16;;;;;;;0.98;0.70;;;7.30;90.00;;;;;;5114797;28;20522;-87
2022/04/16 03:51:44;;;;;;;0.40;0.20;;;7.30;90.10;;;;;;5126635;27;20761;-87
2022/04/16 04:02:25;;;;;;;0.57;0.50;;;7.40;90.70;;;;;;5128524;28;20278;-87
2022/04/16 04:04:52;;;;;;;0.30;0.10;;;7.50;91.40;;;;;;5110505;27;20195;-86
2022/04/16 04:07:19;;;;;;;0.30;0.30;;;7.40;94.50;;;;;;5113244;28;20256;-86
2022/04/16 04:09:47;;;;;;;0.30;0.20;;;7.50;91.40;;;;;;5126415;27;20220;-88
2022/04/16 04:12:15;;;;;;;1.60;1.50;;;7.50;91.50;;;;;;5109097;27;20761;-87
2022/04/16 04:14:44;;;;;;;0.30;0.28;;;7.50;92.00;;;;;;5113757;28;20728;-87
2022/04/16 04:17:11;;;;;;;0.30;0.25;;;7.50;91.80;;;;;;5103936;28;20195;-88
2022/04/16 04:19:40;;;;;;;0.30;0.10;;;7.50;91.30;;;;;;5127712;27;20242;-88
2022/04/16 04:22:08;;;;;;;0.30;0.10;;;7.70;92.00;;;;;;5114078;27;20216;-87
2022/04/16 04:24:37;;;;;;;0.30;0.20;;;7.60;91.70;;;;;;5112623;28;20193;-87
2022/04/16 04:27:07;;;;;;;0.30;0.20;;;7.70;92.20;;;;;;5088440;28;20253;-87
2022/04/16 04:29:35;;;;;;;0.30;0.20;;;7.70;91.90;;;;;;5103622;27;20204;-87
2022/04/16 04:32:01;;;;;;;0.40;0.20;;;7.70;91.90;;;;;;5125749;27;20676;-87
2022/04/16 04:34:28;;;;;;;0.30;0.10;;;7.80;95.10;;;;;;5112571;27;20320;-88
2022/04/16 04:36:55;;;;;;;0.30;0.20;;;7.80;91.60;;;;;;5111618;28;20197;-89
2022/04/16 04:39:22;;;;;;;0.30;0.10;;;8.00;91.20;;;;;;5119874;27;20200;-88
2022/04/16 04:41:49;;;;;;;0.30;0.30;;;7.90;91.20;;;;;;5127006;27;20195;-87
2022/04/16 04:44:17;;;;;;;0.30;0.20;;;7.90;90.70;;;;;;5117874;27;20257;-87
2022/04/16 04:46:44;;;;;;;0.60;0.43;;;8.10;93.00;;;;;;5122775;27;20310;-85
2022/04/16 04:49:12;;;;;;;0.30;0.20;;;7.90;90.60;;;;;;5118726;27;20205;-87
2022/04/16 04:51:39;;;;;;;0.50;0.32;;;7.90;90.50;;;;;;5122752;27;20195;-88
2022/04/16 04:54:07;;;;;;;0.30;0.20;;;7.90;90.80;;;;;;5130648;27;20196;-87
2022/04/16 04:56:34;;;;;;;0.43;0.40;;;7.90;90.90;;;;;;5128512;27;20909;-87
2022/04/16 04:59:01;;;;;;;0.82;0.30;;;7.90;90.40;;;;;;5118275;27;20747;-86
2022/04/16 05:01:30;;;;;;;0.40;0.35;;;7.60;93.30;;;;;;5090238;28;20198;-87
2022/04/16 05:03:57;;;;;;;0.30;0.20;;;7.80;90.60;;;;;;5112460;27;20182;-87
2022/04/16 05:06:24;;;;;;;0.30;0.10;;;7.30;90.80;;;;;;5122253;27;20280;-87
2022/04/16 05:08:52;;;;;;;0.30;0.20;;;7.80;91.30;;;;;;5111514;28;20284;-87
2022/04/16 05:11:19;;;;;;;0.30;0.30;;;7.90;91.20;;;;;;5116303;27;20271;-88
2022/04/16 05:13:46;;;;;;;0.30;0.20;;;7.90;91.30;;;;;;5111465;28;20280;-87
2022/04/16 05:16:13;;;;;;;0.30;0.10;;;7.90;91.50;;;;;;5115338;27;20233;-88
2022/04/16 05:18:42;;;;;;;0.30;0.10;;;7.80;94.70;;;;;;5117246;27;20205;-87
2022/04/16 05:21:09;;;;;;;0.30;0.20;;;8.10;91.10;;;;;;5112966;27;20342;-87
2022/04/16 05:23:39;;;;;;;0.30;0.10;;;7.90;91.20;;;;;;5126993;27;20251;-87
2022/04/16 05:26:07;;;;;;;0.50;0.30;;;8.00;91.10;;;;;;5128124;27;20185;-87
2022/04/16 05:28:34;;;;;;;0.90;0.90;;;8.00;94.00;;;;;;5111591;27;20233;-87
2022/04/16 05:31:03;;;;;;;0.52;0.20;;;8.10;90.70;;;;;;5117725;27;20268;-87
2022/04/16 05:36:15;;;;;;;0.30;0.20;;;8.80;93.30;;;;;;5130630;27;20224;-87
2022/04/16 05:38:42;;;;;;;0.30;0.20;;;8.30;91.50;;;;;;5109812;27;20243;-88
2022/04/16 05:41:09;;;;;;;0.40;0.20;;;8.20;94.20;;;;;;5112294;27;20294;-88
2022/04/16 05:43:36;;;;;;;0.30;0.20;;;8.30;91.10;;;;;;5123782;27;20196;-89
2022/04/16 05:46:03;;;;;;;0.77;0.30;;;8.50;90.90;;;;;;5117159;27;20247;-88
2022/04/16 05:48:30;;;;;;;0.30;0.20;;;8.50;90.50;;;;;;5112305;28;20232;-87
2022/04/16 05:50:58;;;;;;;0.30;0.20;;;8.50;92.90;;;;;;5129934;27;20218;-87
2022/04/16 05:53:26;;;;;;;0.30;0.20;;;8.50;93.00;;;;;;5130910;27;20193;-89
2022/04/16 05:55:53;;;;;;;0.52;0.52;;;8.60;90.20;;;;;;5113790;27;20254;-87
2022/04/16 05:58:21;;;;;;;0.30;0.30;;;;;;;;;;5109417;28;20198;-86
2022/04/16 06:00:48;;;;;;;0.30;0.20;;;8.50;93.10;;;;;;5122450;27;20194;-88
2022/04/16 06:03:15;;;;;;;0.50;0.30;;;8.70;90.20;;;;;;5114185;27;20247;-89
2022/04/16 06:05:42;;;;;;;2.15;1.02;;;8.80;90.30;;;;;;5110334;27;20190;-88
2022/04/16 06:08:09;;;;;;;0.30;0.20;;;8.90;93.20;;;;;;5108981;28;20676;-89
2022/04/16 06:10:37;;;;;;;0.50;0.40;;;8.80;92.90;;;;;;5111943;27;20297;-88
2022/04/16 06:13:05;;;;;;;0.30;0.10;;;9.00;89.30;;;;;;5111002;27;20186;-88
2022/04/16 06:15:32;;;;;;;0.70;0.65;;;9.00;89.70;;;;;;5109338;27;20247;-88
2022/04/16 06:17:59;;;;;;;0.30;0.20;;;9.10;88.80;;;;;;5107758;27;20194;-88
2022/04/16 06:20:26;;;;;;;2.38;0.47;;;8.80;88.30;;;;;;5107515;27;20612;-88
2022/04/16 06:22:53;;;;;;;0.30;0.20;;;9.30;91.50;;;;;;5108042;27;20218;-87
2022/04/16 06:25:20;;;;;;;0.50;0.33;;;9.00;89.10;;;;;;5109815;27;20205;-88
2022/04/16 06:27:48;;;;;;;0.30;0.22;;;9.00;92.00;;;;;;5108206;28;20655;-87
2022/04/16 06:30:15;;;;;;;0.47;0.43;;;9.30;91.40;;;;;;5106569;27;20706;-88
2022/04/16 06:32:42;;;;;;;0.40;0.30;;;9.10;88.20;;;;;;5109166;28;20214;-88
2022/04/16 06:35:12;;;;;;;0.40;0.40;;;9.30;92.40;;;;;;5108663;27;20198;-87
2022/04/16 06:37:40;;;;;;;0.30;0.22;;;9.10;88.60;;;;;;5108934;28;20198;-88
2022/04/16 06:40:09;;;;;;;0.30;0.20;;;8.30;91.00;;;;;;5109927;27;20190;-88
2022/04/16 06:42:36;;;;;;;1.27;1.07;;;9.20;91.80;;;;;;5107875;27;20246;-88
2022/04/16 06:45:06;;;;;;;0.30;0.10;;;9.30;91.30;;;;;;5110465;27;20621;-88
2022/04/16 06:47:33;;;;;;;0.52;0.50;;;9.20;87.40;;;;;;5108922;27;20305;-89
2022/04/16 06:50:00;;;;;;;1.03;0.60;;;9.20;87.30;;;;;;5108800;28;20271;-88
2022/04/16 06:52:27;;;;;;;0.50;0.32;;;9.20;92.00;;;;;;5108103;27;20615;-89
2022/04/16 06:54:56;;;;;;;0.30;0.20;;;9.20;88.40;;;;;;5110943;27;20186;-88
2022/04/16 06:57:23;;;;;;;0.67;0.57;;;9.20;86.90;;;;;;5111687;27;20653;-88
2022/04/16 06:59:49;;;;;;;0.52;0.52;;;10.00;85.80;;;;;;5110997;27;20746;-87
2022/04/16 07:02:18;;;;;;;0.30;0.25;;;9.30;87.00;;;;;;5120876;27;20217;-88
2022/04/16 07:04:45;;;;;;;0.40;0.32;;;9.40;90.90;;;;;;5121409;27;20265;-88
2022/04/16 07:07:12;;;;;;;0.40;0.40;;;9.40;85.90;;;;;;5106585;27;20214;-88
2022/04/16 07:09:39;;;;;;;0.30;0.20;;;9.50;86.80;;;;;;5111456;27;20611;-88
2022/04/16 07:12:09;;;;;;;0.33;0.23;;;9.40;86.90;;;;;;5128708;27;20671;-87
2022/04/16 07:14:36;;;;;;;0.50;0.40;;;9.60;90.00;;;;;;5090091;28;21181;-88
2022/04/16 07:17:04;;;;;;;0.40;0.30;;;9.30;86.10;;;;;;5114957;27;20615;-87
2022/04/16 07:19:33;;;;;;;0.30;0.20;;;9.50;85.00;;;;;;5108850;28;20647;-87
2022/04/16 07:22:00;;;;;;;0.30;0.20;;;9.60;85.70;;;;;;5088342;28;20624;-87
2022/04/16 07:24:27;;;;;;;0.30;0.20;;;9.50;85.00;;;;;;5114668;27;21199;-87
2022/04/16 07:26:55;;;;;;;0.30;0.20;;;;;;;;;;5112521;27;20620;-87
2022/04/16 07:29:22;;;;;;;0.30;0.30;;;8.90;84.00;;;;;;5107103;28;20648;-87
2022/04/16 07:31:49;;;;;;;0.30;0.10;;;9.50;84.40;;;;;;5120769;27;20678;-87
2022/04/16 07:34:16;;;;;;;0.53;0.47;;;9.60;84.80;;;;;;5115820;27;20600;-88
2022/04/16 07:36:46;;;;;;;0.30;0.20;;;9.70;85.50;;;;;;5128194;27;20614;-87
2022/04/16 07:39:14;;;;;;;0.40;0.20;;;9.70;91.20;;;;;;5118581;28;20704;-88
2022/04/16 07:41:41;;;;;;;0.35;0.20;;;9.80;83.60;;;;;;5106690;28;20639;-88
2022/04/16 07:44:08;;;;;;;0.30;0.20;;;9.90;83.00;;;;;;5109373;28;20632;-86
2022/04/16 07:46:36;;;;;;;0.30;0.10;;;7.70;84.00;;;;;;5108239;28;20623;-88
2022/04/16 07:49:04;;;;;;;0.63;0.60;;;10.00;81.70;;;;;;5108180;28;20650;-88
2022/04/16 07:51:31;;;;;;;0.30;0.10;;;10.00;90.50;;;;;;5107428;28;21165;-88
2022/04/16 07:54:00;;;;;;;0.50;0.50;;;10.00;81.10;;;;;;5107730;28;20639;-87
2022/04/16 07:56:27;;;;;;;0.90;0.43;;;9.90;92.00;;;;;;5107129;28;20640;-87
2022/04/16 07:58:55;;;;;;;0.30;0.10;;;9.80;84.40;;;;;;5106446;28;21233;-87
2022/04/16 08:01:22;;;;;;;0.30;0.20;;;10.40;83.40;;;;;;5108979;28;20624;-87
2022/04/16 08:03:49;;;;;;;0.70;0.60;;;;;;;;;;5110531;27;20619;-87
2022/04/16 08:06:16;;;;;;;0.40;0.40;;;9.80;84.10;;;;;;5114003;27;20925;-85
2022/04/16 08:08:43;;;;;;;0.50;0.50;;;9.90;86.90;;;;;;5110598;27;20746;-87
2022/04/16 08:11:12;;;;;;;1.10;1.00;;;10.00;81.90;;;;;;5111668;27;20627;-88
2022/04/16 08:13:39;;;;;;;0.30;0.20;;;10.00;83.20;;;;;;5113200;27;20967;-88
2022/04/16 08:16:06;;;;;;;0.30;0.20;;;10.00;92.10;;;;;;5111180;27;20693;-87
2022/04/16 08:18:33;;;;;;;0.40;0.30;;;10.10;83.10;;;;;;5107888;28;20612;-88
2022/04/16 08:21:00;;;;;;;0.40;0.40;;;10.20;84.00;;;;;;5108856;27;20665;-88
2022/04/16 08:23:27;;;;;;;0.30;0.20;;;10.20;90.80;;;;;;5114658;27;21027;-89
2022/04/16 08:25:54;;;;;;;0.63;0.27;;;;;;;;;;5113116;27;20688;-86
2022/04/16 08:28:23;;;;;;;0.67;0.53;;;10.40;81.80;;;;;;5112367;27;20746;-86
2022/04/16 08:30:51;;;;;;;0.40;0.30;;;11.20;86.50;;;;;;5111273;28;21168;-88
2022/04/16 08:33:19;;;;;;;1.23;0.30;;;10.70;81.60;;;;;;5110631;27;20624;-88
2022/04/16 08:35:47;;;;;;;0.30;0.20;;;10.70;88.30;;;;;;5111234;27;20631;-86
2022/04/16 08:38:14;;;;;;;0.30;0.10;;;11.00;87.70;;;;;;5110160;27;20620;-87
2022/04/16 08:40:42;;;;;;;0.50;0.50;;;10.80;80.50;;;;;;5111764;27;20623;-88
2022/04/16 08:43:09;;;;;;;0.73;0.73;;;;;;;;;;5117247;27;20620;-88
2022/04/16 08:45:38;;;;;;;1.80;0.40;;;10.90;80.80;;;;;;5117580;27;20630;-88
2022/04/16 08:48:06;;;;;;;0.80;0.30;;;10.90;87.60;;;;;;5109512;27;21232;-87
2022/04/16 08:50:34;;;;;;;0.40;0.40;;;10.70;87.40;;;;;;5109850;27;20616;-87
2022/04/16 08:53:01;;;;;;;0.50;0.50;;;11.00;89.30;;;;;;5109383;28;20608;-88
2022/04/16 08:55:30;;;;;;;0.40;0.33;;;11.20;80.20;;;;;;5111775;27;20615;-88
2022/04/16 08:57:57;;;;;;;0.40;0.33;;;11.30;79.90;;;;;;5110372;27;21268;-87
2022/04/16 09:00:24;;;;;;;0.70;0.50;;;11.40;81.20;;;;;;5113819;27;21166;-87
2022/04/16 09:02:56;;;;;;;0.80;0.40;;;11.70;89.30;;;;;;5110694;27;20623;-86
2022/04/16 09:05:24;;;;;;;0.30;0.20;;;11.70;87.10;;;;;;5109124;27;20623;-87
2022/04/16 09:07:53;;;;;;;0.60;0.47;;;11.70;78.70;;;;;;5110315;27;21201;-86
2022/04/16 09:10:21;;;;;;;0.40;0.30;;;11.70;78.80;;;;;;5111139;27;20654;-88
2022/04/16 09:12:51;;;;;;;0.30;0.20;;;11.70;78.40;;;;;;5115683;27;20618;-87
2022/04/16 09:15:18;;;;;;;1.13;1.03;;;11.60;78.70;;;;;;5128804;27;20610;-88
2022/04/16 09:17:59;;;;;;;0.73;0.50;;;11.00;90.00;;;;;;5108542;27;20714;-88
2022/04/16 09:20:32;;;;;;;0.40;0.30;;;11.30;90.50;;;;;;5117628;27;20611;-87
2022/04/16 09:23:00;;;;;;;4.53;0.83;;;;;;;;;;5131815;27;20688;-88
2022/04/16 09:25:31;;;;;;;0.30;0.30;;;11.30;90.20;;;;;;5115295;27;20730;-86
2022/04/16 09:28:05;;;;;;;0.53;0.53;;;11.00;84.40;;;;;;5106074;27;20641;-86
2022/04/16 09:30:37;;;;;;;0.50;0.30;;;11.10;79.90;;;;;;5108778;27;21184;-86
2022/04/16 09:33:08;;;;;;;0.70;0.53;;;11.00;80.70;;;;;;5109238;27;20608;-87
2022/04/16 09:35:36;;;;;;;0.40;0.30;;;10.90;80.60;;;;;;5112750;27;20628;-87
2022/04/16 09:38:06;;;;;;;0.30;0.20;;;10.90;80.20;;;;;;5111551;27;20656;-86
2022/04/16 09:40:34;;;;;;;0.30;0.20;;;10.90;79.80;;;;;;5109105;27;21232;-88
2022/04/16 09:43:04;;;;;;;0.50;0.40;;;10.80;80.30;;;;;;5111287;27;20619;-86
2022/04/16 09:45:32;;;;;;;0.40;0.30;;;10.80;80.70;;;;;;5110400;28;20669;-87
2022/04/16 09:48:00;;;;;;;0.80;0.75;;;11.00;79.50;;;;;;5121544;27;20735;-85
2022/04/16 09:50:30;;;;;;;0.80;0.60;;;10.90;80.00;;;;;;5125078;27;20193;-84
2022/04/16 09:52:59;;;;;;;0.40;0.40;;;10.90;79.60;;;;;;5129421;27;20986;-84
2022/04/16 09:55:27;;;;;;;0.60;0.40;;;11.40;80.00;;;;;;5115281;27;20608;-84
2022/04/16 09:57:58;;;;;;;0.30;0.20;;;11.10;79.30;;;;;;5118549;27;20608;-88
2022/04/16 10:00:25;;;;;;;1.07;1.07;;;11.00;79.20;;;;;;5125916;27;20626;-85
2022/04/16 10:02:53;;;;;;;0.40;0.30;;;11.00;79.30;;;;;;5121410;27;20607;-85
2022/04/16 10:05:22;;;;;;;0.40;0.30;;;11.00;79.50;;;;;;5119560;27;20737;-86
2022/04/16 10:07:52;;;;;;;1.33;0.93;;;10.80;80.90;;;;;;5123273;27;21043;-86
2022/04/16 10:10:25;;;;;;;0.70;0.70;;;10.90;80.00;;;;;;5111191;27;21247;-86
2022/04/16 10:13:03;;;;;;;0.40;0.30;;;11.10;80.20;;;;;;5110793;27;20627;-86
2022/04/16 10:15:53;;;;;;;0.50;0.30;;;11.10;89.60;;;;;;5110898;27;20600;-86
2022/04/16 10:18:21;;;;;;;0.37;0.23;;;11.40;78.90;;;;;;5109642;27;20753;-86
2022/04/16 10:20:52;;;;;;;0.50;0.50;;;11.50;89.00;;;;;;5109067;28;20623;-87
2022/04/16 10:23:31;;;;;;;0.73;0.30;;;11.60;89.70;;;;;;5106971;27;20611;-86
2022/04/16 10:26:05;;;;;;;1.23;1.17;;;11.90;80.50;;;;;;5106751;27;21066;-86
2022/04/16 10:28:43;;;;;;;0.53;0.53;;;11.90;85.50;;;;;;5107481;27;20770;-86
2022/04/16 10:31:23;;;;;;;0.87;0.33;;;12.00;76.40;;;;;;5107055;27;21265;-86
2022/04/16 10:34:09;;;;;;;0.40;0.20;;;12.10;76.70;;;;;;5108647;27;20651;-86
2022/04/16 10:36:38;;;;;;;1.23;1.13;;;12.00;80.20;;;;;;5107955;28;20657;-87
2022/04/16 10:39:15;;;;;;;1.23;0.50;;;11.80;84.90;;;;;;5106777;28;20619;-86
2022/04/16 10:41:54;;;;;;;0.97;0.33;;;11.50;74.50;;;;;;5111903;27;20611;-87
2022/04/16 10:44:21;;;;;;;1.27;0.87;;;11.50;75.30;;;;;;5108925;27;20607;-85
2022/04/16 10:46:49;;;;;;;0.60;0.60;;;11.70;75.00;;;;;;5109701;27;20664;-86
2022/04/16 10:49:17;;;;;;;0.63;0.63;;;11.80;82.20;;;;;;5105141;28;20805;-87
2022/04/16 10:51:45;;;;;;;1.17;0.30;;;11.40;75.00;;;;;;5106035;27;20619;-86
2022/04/16 10:54:13;;;;;;;0.30;0.20;;;11.50;75.30;;;;;;5107999;28;20624;-87
2022/04/16 10:56:52;;;;;;;1.10;0.73;;;11.30;82.40;;;;;;5109125;27;20627;-86
2022/04/16 10:59:19;;;;;;;2.10;0.97;;;11.70;74.80;;;;;;5106180;28;20628;-87
2022/04/16 11:01:53;;;;;;;0.50;0.50;;;11.50;75.10;;;;;;5108700;27;21174;-87
2022/04/16 11:04:22;;;;;;;0.43;0.40;;;11.50;73.80;;;;;;5106322;28;20720;-88
2022/04/16 11:06:51;;;;;;;0.40;0.33;;;11.70;74.50;;;;;;5107773;27;21246;-87
2022/04/16 11:09:19;;;;;;;0.40;0.20;;;11.70;74.10;;;;;;5107049;27;20682;-85
2022/04/16 11:11:52;;;;;;;0.93;0.50;;;11.90;81.70;;;;;;5109817;27;20607;-86
2022/04/16 11:14:19;;;;;;;0.40;0.40;;;11.60;74.80;;;;;;5105096;28;20620;-87
2022/04/16 11:16:48;;;;;;;1.30;1.20;;;11.80;73.70;;;;;;5107021;27;21133;-86
2022/04/16 11:19:16;;;;;;;2.63;0.40;;;11.90;73.90;;;;;;5110314;27;20628;-86
2022/04/16 11:21:43;;;;;;;1.03;0.67;;;12.20;73.50;;;;;;5108821;27;20716;-86
2022/04/16 11:24:11;;;;;;;0.70;0.23;;;12.50;82.40;;;;;;5108024;28;20653;-86
2022/04/16 11:34:54;;;;;;;0.30;0.20;;;12.10;70.40;;;;;;5106743;28;20647;-86
2022/04/16 11:37:21;;;;;;;0.40;0.20;;;12.20;81.70;;;;;;5107593;28;20615;-86
2022/04/16 11:39:59;;;;;;;0.40;0.30;;;12.30;68.10;;;;;;5108355;28;20600;-86
2022/04/16 11:42:26;;;;;;;0.30;0.10;;;12.40;78.30;;;;;;5105870;28;20608;-84
2022/04/16 11:44:54;;;;;;;0.70;0.30;;;12.40;68.20;;;;;;5107990;28;20617;-86
2022/04/16 11:47:23;;;;;;;0.60;0.20;;;12.50;67.30;;;;;;5111061;28;20612;-85
2022/04/16 11:49:52;;;;;;;0.40;0.37;;;12.70;78.60;;;;;;5107056;28;20744;-85
2022/04/16 11:52:24;;;;;;;2.00;1.90;;;12.60;67.50;;;;;;5107408;28;20925;-84
2022/04/16 11:55:00;;;;;;;0.77;0.40;;;13.20;78.50;;;;;;5108666;28;20613;-87
2022/04/16 11:57:27;;;;;;;0.50;0.30;;;12.50;66.80;;;;;;5105628;28;20617;-86
2022/04/16 12:00:00;;;;;;;0.30;0.17;;;12.50;76.30;;;;;;5105978;28;20632;-87
2022/04/16 12:02:31;;;;;;;0.47;0.37;;;12.50;68.30;;;;;;5108159;28;20649;-86
2022/04/16 12:05:08;;;;;;;1.10;0.97;;;12.70;65.80;;;;;;5103333;28;20721;-86
2022/04/16 12:07:35;;;;;;;0.93;0.70;;;13.00;76.00;;;;;;5110359;28;20624;-87
2022/04/16 12:10:06;;;;;;;0.30;0.30;;;12.90;65.50;;;;;;5128737;27;20671;-85
2022/04/16 12:12:44;;;;;;;0.83;0.30;;;13.50;67.20;;;;;;5112784;27;20618;-86
2022/04/16 12:15:15;;;;;;;0.40;0.33;;;13.30;65.10;;;;;;5107454;28;20628;-86
2022/04/16 12:17:42;;;;;;;0.80;0.80;;;;;;;;;;5108820;28;20623;-85
2022/04/16 12:20:11;;;;;;;1.67;1.57;;;13.40;61.00;;;;;;5118277;28;20623;-87
2022/04/16 12:22:50;;;;;;;1.70;0.93;;;14.70;68.50;;;;;;5118586;27;20633;-87
2022/04/16 12:25:18;;;;;;;0.30;0.20;;;15.00;60.60;;;;;;5107817;28;20620;-86
2022/04/16 12:27:46;;;;;;;0.73;0.73;;;14.80;59.70;;;;;;5124627;28;22421;-87
2022/04/16 12:30:17;;;;;;;0.63;0.40;;;14.70;58.70;;;;;;5115607;27;20670;-87
2022/04/16 12:32:56;;;;;;;0.67;0.40;;;14.80;57.40;;;;;;5108896;28;20628;-87
2022/04/16 12:35:24;;;;;;;0.30;0.20;;;14.60;58.20;;;;;;5104234;28;20711;-86
2022/04/16 12:37:51;;;;;;;0.30;0.20;;;14.10;67.20;;;;;;5094607;28;21191;-87
2022/04/16 12:40:18;;;;;;;0.63;0.50;;;15.50;67.80;;;;;;5109354;27;21314;-86
2022/04/16 12:42:45;;;;;;;0.40;0.40;;;15.60;58.90;;;;;;5107036;28;20689;-87
2022/04/16 12:45:12;;;;;;;0.30;0.20;;;17.10;56.40;;;;;;5112304;28;20616;-86
2022/04/16 12:47:40;;;;;;;0.30;0.30;;;17.30;54.20;;;;;;5107078;28;20715;-87
2022/04/16 12:50:09;;;;;;;0.73;0.73;;;17.20;59.30;;;;;;5112438;27;21056;-87
2022/04/16 12:52:36;;;;;;;0.40;0.40;;;17.10;55.60;;;;;;5111197;27;20963;-86
2022/04/16 12:55:05;;;;;;;1.67;0.97;;;17.50;55.40;;;;;;5111099;27;20615;-87
2022/04/16 12:57:32;;;;;;;0.33;0.33;;;17.60;54.20;;;;;;5126342;27;20662;-87
2022/04/16 12:59:59;;;;;;;0.57;0.57;;;;;;;;;;5122983;27;20628;-86
2022/04/16 13:02:26;;;;;;;1.40;1.30;;;18.00;52.90;;;;;;5110810;27;20619;-85
2022/04/16 13:04:55;;;;;;;1.20;0.77;;;19.40;52.30;;;;;;5113723;27;21167;-87
2022/04/16 13:07:22;;;;;;;0.50;0.40;;;19.70;49.80;;;;;;5117862;27;20632;-86
2022/04/16 13:09:49;;;;;;;0.50;0.50;;;19.10;50.40;;;;;;5126580;27;21070;-87
2022/04/16 13:12:19;;;;;;;0.50;0.50;;;20.30;52.20;;;;;;5127736;27;20738;-86
2022/04/16 13:14:46;;;;;;;0.80;0.67;;;20.20;49.30;;;;;;5120414;27;20665;-86
2022/04/16 13:17:13;;;;;;;0.60;0.50;;;21.30;47.80;;;;;;5128121;27;20626;-87
2022/04/16 13:19:40;;;;;;;0.80;0.80;;;22.40;46.10;;;;;;5129522;27;20722;-87
2022/04/16 13:22:09;;;;;;;1.23;0.70;;;23.00;44.30;;;;;;5122794;27;20662;-86
2022/04/16 13:24:36;;;;;;;0.90;0.90;;;23.00;44.90;;;;;;5122613;27;20651;-85
2022/04/16 13:27:05;;;;;;;0.40;0.23;;;23.30;43.80;;;;;;5100383;27;20632;-85
2022/04/16 13:29:32;;;;;;;0.97;0.97;;;24.20;43.90;;;;;;5117564;27;20685;-86